Time;durP1;ratioP1;P1;durP2;ratioP2;P2;SDS_P1;SDS_P2;PMS_P1;PMS_P2;Temp;Humidity;BMP_temperature;BMP_pressure;BME280_temperature;BME280_humidity;BME280_pressure;Samples;Min_cycle;Max_cycle;Signal;HPM_P1;HPM_P2
2022/01/27 00:06:39;;;;;;;;;;;9.50;54.60;;;;;;5075600;28;19905;-70
2022/01/27 00:09:20;;;;;;;;;;;9.50;54.60;;;;;;5083526;28;20239;-70
2022/01/27 00:11:47;;;;;;;;;;;9.50;54.50;;;;;;5083572;28;20543;-70
2022/01/27 00:14:14;;;;;;;;;;;9.50;54.50;;;;;;5081941;28;20082;-70
2022/01/27 00:16:44;;;;;;;;;;;9.60;54.40;;;;;;5083327;28;19917;-70
2022/01/27 00:19:10;;;;;;;;;;;9.60;54.40;;;;;;5081917;28;19912;-70
2022/01/27 00:21:36;;;;;;;;;;;9.60;54.30;;;;;;5083225;28;19920;-70
2022/01/27 00:24:03;;;;;;;;;;;9.60;54.30;;;;;;5081965;28;19912;-70
2022/01/27 00:26:29;;;;;;;;;;;9.50;54.40;;;;;;5083224;28;19978;-69
2022/01/27 00:28:54;;;;;;;;;;;9.50;54.40;;;;;;5083080;28;19916;-69
2022/01/27 00:31:21;;;;;;;;;;;9.50;54.60;;;;;;5083111;28;19940;-69
2022/01/27 00:33:47;;;;;;;;;;;9.50;54.60;;;;;;5082974;28;19966;-70
2022/01/27 00:36:12;;;;;;;;;;;9.50;54.60;;;;;;5082900;28;19920;-69
2022/01/27 00:38:38;;;;;;;;;;;9.50;54.60;;;;;;5082948;28;19971;-69
2022/01/27 00:41:04;;;;;;;;;;;9.50;54.60;;;;;;5082951;28;20206;-70
2022/01/27 00:43:29;;;;;;;;;;;9.50;54.60;;;;;;5081516;28;20082;-70
2022/01/27 00:45:55;;;;;;;;;;;9.50;54.60;;;;;;5082736;28;19905;-70
2022/01/27 00:48:21;;;;;;;;;;;9.50;54.60;;;;;;5081441;28;20027;-68
2022/01/27 00:50:56;;;;;;;;;;;9.50;54.60;;;;;;5082632;28;20216;-69
2022/01/27 00:56:26;;;;;;;;;;;9.50;54.50;;;;;;5082603;28;19919;-70
2022/01/27 01:01:24;;;;;;;;;;;9.60;54.40;;;;;;5082707;28;19912;-69
2022/01/27 01:03:53;;;;;;;;;;;9.50;54.50;;;;;;5082510;28;19984;-70
2022/01/27 01:06:32;;;;;;;;;;;9.50;54.50;;;;;;5082318;28;19913;-69
2022/01/27 01:17:35;;;;;;;;;;;9.50;54.60;;;;;;5069732;28;19929;-69
2022/01/27 01:20:09;;;;;;;;;;;9.50;55.20;;;;;;5081982;28;19983;-70
2022/01/27 01:30:52;;;;;;;;;;;9.50;54.60;;;;;;5081916;28;19919;-70
2022/01/27 01:33:24;;;;;;;;;;;9.50;54.60;;;;;;5081854;28;19916;-70
2022/01/27 01:35:59;;;;;;;;;;;9.50;54.60;;;;;;5081442;28;19912;-71
2022/01/27 01:38:26;;;;;;;;;;;9.50;54.60;;;;;;5081742;28;20100;-70
2022/01/27 01:40:53;;;;;;;;;;;9.50;54.60;;;;;;5081614;28;19927;-70
2022/01/27 01:43:19;;;;;;;;;;;9.40;54.60;;;;;;5081692;28;19904;-69
2022/01/27 01:45:45;;;;;;;;;;;9.50;54.70;;;;;;5081515;28;19912;-69
2022/01/27 01:48:10;;;;;;;;;;;9.50;54.70;;;;;;5081479;28;20112;-69
2022/01/27 01:50:36;;;;;;;;;;;9.50;54.70;;;;;;5081438;28;19913;-70
2022/01/27 01:53:02;;;;;;;;;;;9.50;54.60;;;;;;5080049;28;19917;-69
2022/01/27 01:55:29;;;;;;;;;;;9.50;54.60;;;;;;5080101;28;19905;-69
2022/01/27 01:57:57;;;;;;;;;;;9.50;54.60;;;;;;5081222;28;20112;-68
2022/01/27 02:00:23;;;;;;;;;;;9.50;54.60;;;;;;5081233;28;19920;-69
2022/01/27 02:02:49;;;;;;;;;;;9.50;54.60;;;;;;5081274;28;20157;-70
2022/01/27 02:05:14;;;;;;;;;;;9.50;54.60;;;;;;5079865;28;20197;-69
2022/01/27 02:08:01;;;;;;;;;;;9.50;54.60;;;;;;5081077;28;19911;-69
2022/01/27 02:18:40;;;;;;;;;;;9.50;54.70;;;;;;5080427;28;19935;-70
2022/01/27 02:21:06;;;;;;;;;;;9.50;54.70;;;;;;5080784;28;20116;-70
2022/01/27 02:23:31;;;;;;;;;;;9.50;54.60;;;;;;5080723;28;19919;-70
2022/01/27 02:25:57;;;;;;;;;;;9.50;54.70;;;;;;5080790;28;19919;-70
2022/01/27 02:28:22;;;;;;;;;;;9.50;54.70;;;;;;5080657;28;20120;-70
2022/01/27 02:30:48;;;;;;;;;;;9.50;54.70;;;;;;5080721;28;19912;-69
2022/01/27 02:33:13;;;;;;;;;;;9.50;54.70;;;;;;5079312;28;19923;-70
2022/01/27 02:35:39;;;;;;;;;;;9.50;54.60;;;;;;5079197;28;19983;-71
2022/01/27 02:38:05;;;;;;;;;;;9.60;54.60;;;;;;5080541;28;20145;-70
2022/01/27 02:40:53;;;;;;;;;;;9.50;54.50;;;;;;5080490;28;20333;-69
2022/01/27 02:43:18;;;;;;;;;;;9.50;54.50;;;;;;5080533;28;20192;-70
2022/01/27 02:45:54;;;;;;;;;;;9.50;54.60;;;;;;5080340;28;19920;-70
2022/01/27 02:48:20;;;;;;;;;;;9.50;54.70;;;;;;5080355;28;20219;-70
2022/01/27 02:50:45;;;;;;;;;;;9.50;54.70;;;;;;5080277;28;19944;-70
2022/01/27 02:53:11;;;;;;;;;;;9.50;54.70;;;;;;5080224;28;19951;-70
2022/01/27 02:55:37;;;;;;;;;;;9.50;54.70;;;;;;5080234;28;19920;-70
2022/01/27 02:58:03;;;;;;;;;;;9.50;54.70;;;;;;5080121;28;19927;-70
2022/01/27 03:00:29;;;;;;;;;;;9.50;54.70;;;;;;5078901;28;19918;-69
2022/01/27 03:02:55;;;;;;;;;;;9.50;54.60;;;;;;5080063;28;19904;-70
2022/01/27 03:05:21;;;;;;;;;;;9.50;54.60;;;;;;5080128;28;19954;-70
2022/01/27 03:07:48;;;;;;;;;;;9.50;54.70;;;;;;5078615;28;20200;-70
2022/01/27 03:10:17;;;;;;;;;;;9.50;54.70;;;;;;5079954;28;19954;-70
2022/01/27 03:12:43;;;;;;;;;;;9.50;54.70;;;;;;5079843;28;19909;-70
2022/01/27 03:15:10;;;;;;;;;;;9.50;54.60;;;;;;5079833;28;20090;-70
2022/01/27 03:17:36;;;;;;;;;;;9.50;54.50;;;;;;5079973;28;19912;-70
2022/01/27 03:20:02;;;;;;;;;;;9.50;54.50;;;;;;5078592;28;19919;-70
2022/01/27 03:22:28;;;;;;;;;;;9.50;54.70;;;;;;5079916;28;19927;-69
2022/01/27 03:24:53;;;;;;;;;;;9.50;54.70;;;;;;5079792;28;20159;-71
2022/01/27 03:27:23;;;;;;;;;;;9.50;54.80;;;;;;5079762;28;19988;-70
2022/01/27 03:29:49;;;;;;;;;;;9.50;54.80;;;;;;5079031;28;19912;-69
2022/01/27 03:32:15;;;;;;;;;;;9.50;54.70;;;;;;5079460;28;19997;-71
2022/01/27 03:34:41;;;;;;;;;;;9.50;54.70;;;;;;5079726;28;19908;-70
2022/01/27 03:37:07;;;;;;;;;;;9.50;54.60;;;;;;5079675;28;19912;-70
2022/01/27 03:39:35;;;;;;;;;;;9.50;54.60;;;;;;5079629;28;20225;-70
2022/01/27 03:42:01;;;;;;;;;;;9.50;54.60;;;;;;5079639;28;20134;-70
2022/01/27 03:44:29;;;;;;;;;;;9.50;54.70;;;;;;5079574;28;19913;-70
2022/01/27 03:46:55;;;;;;;;;;;9.50;54.70;;;;;;5079563;28;19950;-70
2022/01/27 03:49:21;;;;;;;;;;;9.50;54.70;;;;;;5079569;28;19916;-70
2022/01/27 03:51:46;;;;;;;;;;;9.50;54.70;;;;;;5079542;28;19975;-70
2022/01/27 03:54:12;;;;;;;;;;;9.40;54.60;;;;;;5079441;28;19920;-70
2022/01/27 03:56:38;;;;;;;;;;;9.50;54.70;;;;;;5079510;28;19905;-70
2022/01/27 03:59:04;;;;;;;;;;;9.50;54.80;;;;;;5078336;28;20155;-70
2022/01/27 04:01:30;;;;;;;;;;;9.40;54.70;;;;;;5079433;28;19994;-70
2022/01/27 04:03:58;;;;;;;;;;;9.50;54.80;;;;;;5079429;28;19920;-69
2022/01/27 04:06:33;;;;;;;;;;;9.40;54.70;;;;;;5079339;28;19913;-70
2022/01/27 04:08:59;;;;;;;;;;;9.50;54.80;;;;;;5079439;28;20228;-70
2022/01/27 04:11:25;;;;;;;;;;;9.50;54.80;;;;;;5079320;28;19912;-70
2022/01/27 04:13:51;;;;;;;;;;;9.50;54.70;;;;;;5078269;28;20230;-70
2022/01/27 04:16:16;;;;;;;;;;;9.50;54.70;;;;;;5079144;28;19924;-70
2022/01/27 04:18:42;;;;;;;;;;;9.50;54.70;;;;;;5079270;28;20292;-70
2022/01/27 04:21:07;;;;;;;;;;;9.50;54.70;;;;;;5079266;28;19904;-70
2022/01/27 04:23:33;;;;;;;;;;;9.50;54.80;;;;;;5079189;28;19912;-70
2022/01/27 04:25:59;;;;;;;;;;;9.40;54.70;;;;;;5079259;28;19912;-70
2022/01/27 04:28:31;;;;;;;;;;;9.50;54.70;;;;;;5079134;28;19944;-70
2022/01/27 04:30:59;;;;;;;;;;;9.40;54.70;;;;;;5079235;28;19983;-69
2022/01/27 04:33:28;;;;;;;;;;;9.50;54.80;;;;;;5079047;28;19975;-69
2022/01/27 04:35:58;;;;;;;;;;;9.40;54.70;;;;;;5079122;28;19927;-70
2022/01/27 04:38:39;;;;;;;;;;;9.50;54.70;;;;;;5079081;28;20186;-70
2022/01/27 04:43:44;;;;;;;;;;;9.50;54.70;;;;;;5082687;28;19904;-70
2022/01/27 04:48:43;;;;;;;;;;;9.50;54.70;;;;;;5082915;28;19968;-70
2022/01/27 04:51:13;;;;;;;;;;;9.50;54.70;;;;;;5082577;28;19983;-70
2022/01/27 04:53:45;;;;;;;;;;;9.50;54.70;;;;;;5082428;28;19924;-69
2022/01/27 04:56:13;;;;;;;;;;;9.50;54.70;;;;;;5082554;28;19912;-70
2022/01/27 04:58:39;;;;;;;;;;;9.50;54.80;;;;;;5082419;28;20128;-70
2022/01/27 05:01:05;;;;;;;;;;;9.40;55.30;;;;;;5082368;28;20248;-69
2022/01/27 05:03:40;;;;;;;;;;;9.40;54.80;;;;;;5082294;28;19912;-70
2022/01/27 05:06:06;;;;;;;;;;;9.40;54.80;;;;;;5082386;28;19913;-70
2022/01/27 05:08:32;;;;;;;;;;;9.40;54.80;;;;;;5082260;28;20220;-70
2022/01/27 05:11:35;;;;;;;;;;;9.50;54.80;;;;;;5082289;28;19940;-70
2022/01/27 05:13:58;;;;;;;;;;;9.50;54.80;;;;;;5081748;28;20132;-70
2022/01/27 05:16:23;;;;;;;;;;;9.50;54.70;;;;;;5081964;28;20245;-70
2022/01/27 05:18:49;;;;;;;;;;;9.50;54.70;;;;;;5080807;28;19912;-71
2022/01/27 05:21:15;;;;;;;;;;;9.50;54.70;;;;;;5080738;28;19904;-70
2022/01/27 05:23:41;;;;;;;;;;;9.50;54.70;;;;;;5080765;28;19912;-70
2022/01/27 05:26:06;;;;;;;;;;;9.50;54.70;;;;;;5081923;28;20247;-70
2022/01/27 05:28:32;;;;;;;;;;;9.50;54.80;;;;;;5081849;28;20098;-70
2022/01/27 05:30:58;;;;;;;;;;;9.40;54.80;;;;;;5081838;28;20069;-70
2022/01/27 05:33:23;;;;;;;;;;;9.40;54.80;;;;;;5080369;28;19981;-70
2022/01/27 05:35:49;;;;;;;;;;;9.40;54.80;;;;;;5081760;28;19987;-70
2022/01/27 05:38:15;;;;;;;;;;;9.40;54.80;;;;;;5081666;28;19944;-70
2022/01/27 05:40:41;;;;;;;;;;;9.40;54.80;;;;;;5081630;28;19958;-70
2022/01/27 05:43:07;;;;;;;;;;;9.40;54.80;;;;;;5081648;28;20213;-71
2022/01/27 05:45:32;;;;;;;;;;;9.40;54.80;;;;;;5081573;28;19942;-70
2022/01/27 05:47:58;;;;;;;;;;;9.40;54.80;;;;;;5081507;28;19920;-70
2022/01/27 05:50:24;;;;;;;;;;;9.40;54.80;;;;;;5081475;28;19950;-69
2022/01/27 05:52:49;;;;;;;;;;;9.50;54.80;;;;;;5080532;28;20116;-71
2022/01/27 05:55:15;;;;;;;;;;;9.40;54.70;;;;;;5081098;28;19915;-71
2022/01/27 05:57:41;;;;;;;;;;;9.50;54.70;;;;;;5081313;28;19946;-70
2022/01/27 06:00:06;;;;;;;;;;;9.50;54.70;;;;;;5081240;28;19927;-69
2022/01/27 06:02:32;;;;;;;;;;;9.50;54.80;;;;;;5081240;28;19916;-70
2022/01/27 06:04:58;;;;;;;;;;;9.40;54.80;;;;;;5081202;28;19910;-70
2022/01/27 06:07:23;;;;;;;;;;;9.40;54.80;;;;;;5081061;28;19920;-71
2022/01/27 06:09:50;;;;;;;;;;;9.40;54.80;;;;;;5081142;28;19912;-70
2022/01/27 06:12:15;;;;;;;;;;;9.40;54.70;;;;;;5080902;28;19921;-70
2022/01/27 06:14:41;;;;;;;;;;;9.40;54.90;;;;;;5080845;28;19913;-70
2022/01/27 06:17:07;;;;;;;;;;;9.40;54.80;;;;;;5080998;28;19912;-70
2022/01/27 06:19:32;;;;;;;;;;;9.40;54.80;;;;;;5080878;28;19918;-70
2022/01/27 06:21:58;;;;;;;;;;;9.50;54.80;;;;;;5080872;28;20002;-69
2022/01/27 06:24:24;;;;;;;;;;;9.40;54.80;;;;;;5080813;28;20396;-69
2022/01/27 06:26:49;;;;;;;;;;;9.40;54.80;;;;;;5080724;28;19958;-70
2022/01/27 06:29:15;;;;;;;;;;;9.40;54.80;;;;;;5080694;28;19912;-70
2022/01/27 06:31:41;;;;;;;;;;;9.40;54.80;;;;;;5080610;28;19919;-68
2022/01/27 06:34:07;;;;;;;;;;;9.40;54.80;;;;;;5080512;28;19951;-70
2022/01/27 06:36:32;;;;;;;;;;;9.40;54.80;;;;;;5080538;28;19919;-70
2022/01/27 06:38:58;;;;;;;;;;;9.40;54.80;;;;;;5080545;28;19913;-70
2022/01/27 06:41:23;;;;;;;;;;;9.40;54.80;;;;;;5080410;28;20108;-70
2022/01/27 06:43:49;;;;;;;;;;;9.40;54.80;;;;;;5080438;28;19912;-70
2022/01/27 06:46:15;;;;;;;;;;;9.40;54.90;;;;;;5080372;28;20101;-70
2022/01/27 06:48:43;;;;;;;;;;;9.40;54.80;;;;;;5080232;28;19912;-70
2022/01/27 06:51:09;;;;;;;;;;;9.40;54.80;;;;;;5080359;28;20443;-70
2022/01/27 06:53:35;;;;;;;;;;;9.50;54.80;;;;;;5080128;28;19939;-69
2022/01/27 06:56:01;;;;;;;;;;;9.50;54.70;;;;;;5080220;28;19919;-70
2022/01/27 06:58:26;;;;;;;;;;;9.50;54.70;;;;;;5080178;28;20293;-69
2022/01/27 07:00:52;;;;;;;;;;;9.50;54.60;;;;;;5080076;28;19913;-70
2022/01/27 07:03:18;;;;;;;;;;;9.50;54.70;;;;;;5080167;28;20219;-69
2022/01/27 07:05:43;;;;;;;;;;;9.50;54.80;;;;;;5079863;28;20374;-70
2022/01/27 07:08:09;;;;;;;;;;;9.40;54.80;;;;;;5080023;28;19955;-70
2022/01/27 07:10:34;;;;;;;;;;;9.40;54.70;;;;;;5078655;28;19919;-70
2022/01/27 07:13:00;;;;;;;;;;;9.50;54.80;;;;;;5079900;28;19917;-70
2022/01/27 07:15:28;;;;;;;;;;;9.50;54.80;;;;;;5079810;28;19925;-70
2022/01/27 07:17:54;;;;;;;;;;;9.40;54.80;;;;;;5079855;28;19919;-70
2022/01/27 07:20:20;;;;;;;;;;;9.50;54.80;;;;;;5078651;28;19913;-70
2022/01/27 07:22:45;;;;;;;;;;;9.50;54.80;;;;;;5079899;28;19905;-70
2022/01/27 07:25:11;;;;;;;;;;;9.40;54.70;;;;;;5079872;28;19912;-70
2022/01/27 07:27:37;;;;;;;;;;;9.50;54.80;;;;;;5079868;28;20167;-70
2022/01/27 07:30:03;;;;;;;;;;;9.40;54.70;;;;;;5079756;28;19912;-70
2022/01/27 07:32:28;;;;;;;;;;;9.50;54.70;;;;;;5078460;28;19918;-70
2022/01/27 07:34:54;;;;;;;;;;;9.50;54.50;;;;;;5079748;28;19912;-70
2022/01/27 07:37:20;;;;;;;;;;;9.50;54.50;;;;;;5079737;28;19904;-70
2022/01/27 07:39:46;;;;;;;;;;;9.50;54.50;;;;;;5079715;28;19919;-70
2022/01/27 07:42:11;;;;;;;;;;;9.50;54.60;;;;;;5078359;28;19979;-69
2022/01/27 07:44:37;;;;;;;;;;;9.50;54.60;;;;;;5078677;28;20000;-70
2022/01/27 07:47:03;;;;;;;;;;;9.50;54.70;;;;;;5079644;28;19905;-70
2022/01/27 07:49:31;;;;;;;;;;;9.50;54.70;;;;;;5078369;28;19919;-70
2022/01/27 07:51:57;;;;;;;;;;;9.50;54.70;;;;;;5079661;28;19919;-70
2022/01/27 07:54:23;;;;;;;;;;;9.50;54.70;;;;;;5079503;28;19979;-70
2022/01/27 07:56:48;;;;;;;;;;;9.50;54.70;;;;;;5079546;28;19959;-71
2022/01/27 07:59:14;;;;;;;;;;;9.50;54.60;;;;;;5079530;28;19971;-71
2022/01/27 08:01:40;;;;;;;;;;;9.50;54.70;;;;;;5079514;28;19993;-70
2022/01/27 08:04:05;;;;;;;;;;;9.50;54.70;;;;;;5079748;28;19919;-70
2022/01/27 08:06:31;;;;;;;;;;;9.50;54.70;;;;;;5079457;28;19913;-70
2022/01/27 08:08:57;;;;;;;;;;;9.50;54.60;;;;;;5079430;28;19912;-70
2022/01/27 08:11:22;;;;;;;;;;;9.50;54.60;;;;;;5079408;28;19951;-70
2022/01/27 08:13:48;;;;;;;;;;;9.50;54.70;;;;;;5079339;28;19956;-70
2022/01/27 08:16:14;;;;;;;;;;;9.50;54.60;;;;;;5079584;28;19924;-71
2022/01/27 08:18:39;;;;;;;;;;;9.50;54.60;;;;;;5083551;28;19919;-70
2022/01/27 08:21:05;;;;;;;;;;;9.50;54.60;;;;;;5081863;28;19912;-70
2022/01/27 08:23:33;;;;;;;;;;;9.50;54.60;;;;;;5082655;28;20553;-70
2022/01/27 08:26:07;;;;;;;;;;;9.50;54.60;;;;;;5083101;28;20004;-70
2022/01/27 08:28:42;;;;;;;;;;;9.50;54.50;;;;;;5083061;28;19904;-69
2022/01/27 08:31:08;;;;;;;;;;;9.60;54.60;;;;;;5083097;28;19920;-71
2022/01/27 08:33:37;;;;;;;;;;;9.60;54.60;;;;;;5082876;28;20060;-70
2022/01/27 08:36:03;;;;;;;;;;;9.60;54.50;;;;;;5082904;28;19920;-70
2022/01/27 08:38:28;;;;;;;;;;;9.60;54.40;;;;;;5082892;28;19913;-70
2022/01/27 08:40:54;;;;;;;;;;;9.60;54.40;;;;;;5082834;28;20253;-71
2022/01/27 08:43:20;;;;;;;;;;;9.60;54.40;;;;;;5082778;28;19927;-70
2022/01/27 08:45:46;;;;;;;;;;;9.60;54.50;;;;;;5082785;28;19913;-70
2022/01/27 08:48:17;;;;;;;;;;;9.60;54.50;;;;;;5082717;28;19944;-70
2022/01/27 08:50:49;;;;;;;;;;;9.60;54.40;;;;;;5082613;28;20376;-71
2022/01/27 08:53:14;;;;;;;;;;;9.60;54.40;;;;;;5082523;28;19916;-72
2022/01/27 08:55:40;;;;;;;;;;;9.60;54.30;;;;;;5082547;28;19912;-70
2022/01/27 08:58:06;;;;;;;;;;;9.70;54.30;;;;;;5082539;28;19919;-70
2022/01/27 09:00:31;;;;;;;;;;;9.70;54.30;;;;;;5082517;28;19912;-70
2022/01/27 09:02:58;;;;;;;;;;;9.70;54.40;;;;;;5082510;28;20082;-70
2022/01/27 09:05:24;;;;;;;;;;;9.60;54.30;;;;;;5082363;28;19927;-70
2022/01/27 09:07:55;;;;;;;;;;;9.60;54.40;;;;;;5082401;28;19944;-70
2022/01/27 09:10:20;;;;;;;;;;;9.70;54.40;;;;;;5082391;28;20074;-70
2022/01/27 09:12:46;;;;;;;;;;;9.70;54.20;;;;;;5082269;28;20303;-70
2022/01/27 09:15:11;;;;;;;;;;;9.70;54.10;;;;;;5082128;28;19912;-70
2022/01/27 09:17:40;;;;;;;;;;;9.70;54.00;;;;;;5082299;28;19916;-70
2022/01/27 09:20:09;;;;;;;;;;;9.80;54.10;;;;;;5082275;28;20497;-70
2022/01/27 09:22:36;;;;;;;;;;;9.70;54.10;;;;;;5082210;28;19944;-69
2022/01/27 09:25:09;;;;;;;;;;;9.70;54.20;;;;;;5080846;28;19913;-69
2022/01/27 09:27:35;;;;;;;;;;;9.70;54.20;;;;;;5081362;28;19942;-70
2022/01/27 09:30:04;;;;;;;;;;;9.70;54.20;;;;;;5081642;28;19912;-70
2022/01/27 09:32:30;;;;;;;;;;;9.70;54.10;;;;;;5082019;28;19920;-70
2022/01/27 09:34:55;;;;;;;;;;;9.80;54.10;;;;;;5081979;28;20254;-69
2022/01/27 09:37:22;;;;;;;;;;;9.80;54.00;;;;;;5081974;28;19919;-69
2022/01/27 09:39:48;;;;;;;;;;;9.80;54.00;;;;;;5081937;28;20151;-69
2022/01/27 09:42:14;;;;;;;;;;;9.80;53.90;;;;;;5081842;28;19912;-70
2022/01/27 09:44:43;;;;;;;;;;;9.80;53.90;;;;;;5081858;28;19946;-71
2022/01/27 09:47:16;;;;;;;;;;;9.90;53.80;;;;;;5081762;28;19924;-70
2022/01/27 09:50:04;;;;;;;;;;;10.00;53.70;;;;;;5080473;28;20154;-71
2022/01/27 09:52:29;;;;;;;;;;;10.00;53.70;;;;;;5081638;28;19912;-70
2022/01/27 09:54:55;;;;;;;;;;;10.00;53.80;;;;;;5081601;28;20212;-69
2022/01/27 09:57:21;;;;;;;;;;;10.00;53.80;;;;;;5081642;28;20219;-70
2022/01/27 09:59:47;;;;;;;;;;;10.00;53.70;;;;;;5081564;28;20135;-70
2022/01/27 10:02:17;;;;;;;;;;;10.00;53.60;;;;;;5081482;28;20327;-70
2022/01/27 10:04:44;;;;;;;;;;;10.10;53.60;;;;;;5081369;28;19919;-69
2022/01/27 10:07:11;;;;;;;;;;;10.10;53.50;;;;;;5081420;28;19975;-69
2022/01/27 10:09:37;;;;;;;;;;;10.10;53.50;;;;;;5081324;28;19912;-69
2022/01/27 10:12:03;;;;;;;;;;;10.00;53.40;;;;;;5079924;28;20010;-70
2022/01/27 10:14:34;;;;;;;;;;;10.10;53.50;;;;;;5081242;28;19921;-69
2022/01/27 10:17:02;;;;;;;;;;;10.10;53.30;;;;;;5081110;28;19935;-69
2022/01/27 10:19:27;;;;;;;;;;;10.10;53.30;;;;;;5081097;28;19935;-70
2022/01/27 10:22:01;;;;;;;;;;;10.10;53.30;;;;;;5080988;28;20205;-70
2022/01/27 10:24:31;;;;;;;;;;;10.10;53.30;;;;;;5081053;28;20066;-69
2022/01/27 10:27:22;;;;;;;;;;;10.10;53.30;;;;;;5080988;28;20230;-69
2022/01/27 10:32:24;;;;;;;;;;;10.10;53.40;;;;;;5080801;28;19905;-70
2022/01/27 10:34:54;;;;;;;;;;;10.10;53.50;;;;;;5080803;28;19912;-70
2022/01/27 10:37:20;;;;;;;;;;;10.10;53.50;;;;;;5080854;28;20161;-70
2022/01/27 10:39:46;;;;;;;;;;;10.10;53.50;;;;;;5079008;28;19934;-70
2022/01/27 10:42:12;;;;;;;;;;;10.10;53.60;;;;;;5079425;28;20177;-70
2022/01/27 10:44:54;;;;;;;;;;;10.10;53.50;;;;;;5080727;28;19912;-70
2022/01/27 10:47:23;;;;;;;;;;;10.10;53.40;;;;;;5080620;28;20108;-69
2022/01/27 10:50:04;;;;;;;;;;;10.10;53.30;;;;;;5080590;28;20137;-70
2022/01/27 10:52:41;;;;;;;;;;;10.20;53.30;;;;;;5080513;28;19980;-69
2022/01/27 10:55:08;;;;;;;;;;;10.20;53.30;;;;;;5080545;28;19908;-70
2022/01/27 10:57:34;;;;;;;;;;;10.20;53.40;;;;;;5079144;28;20156;-69
2022/01/27 11:00:19;;;;;;;;;;;10.20;53.40;;;;;;5080454;28;19912;-69
2022/01/27 11:02:49;;;;;;;;;;;10.20;53.50;;;;;;5080345;28;19912;-70
2022/01/27 11:05:16;;;;;;;;;;;10.10;53.50;;;;;;5080244;28;19913;-70
2022/01/27 11:07:42;;;;;;;;;;;10.20;53.40;;;;;;5080254;28;20019;-70
2022/01/27 11:10:07;;;;;;;;;;;10.20;53.40;;;;;;5080269;28;19913;-70
2022/01/27 11:12:33;;;;;;;;;;;10.20;53.40;;;;;;5080163;28;19905;-69
2022/01/27 11:14:59;;;;;;;;;;;10.20;53.40;;;;;;5080100;28;19925;-69
2022/01/27 11:17:29;;;;;;;;;;;10.20;53.40;;;;;;5080102;28;19913;-71
2022/01/27 11:20:19;;;;;;;;;;;10.20;53.30;;;;;;5080126;28;20107;-70
2022/01/27 11:27:49;;;;;;;;;;;10.30;53.20;;;;;;5079979;28;20116;-69
2022/01/27 11:30:24;;;;;;;;;;;10.30;53.20;;;;;;5079928;28;19939;-70
2022/01/27 11:33:02;;;;;;;;;;;10.30;53.20;;;;;;5078620;28;19938;-69
2022/01/27 11:35:28;;;;;;;;;;;10.30;53.30;;;;;;5080009;28;19912;-69
2022/01/27 11:37:55;;;;;;;;;;;10.30;53.40;;;;;;5079864;28;20113;-70
2022/01/27 11:40:21;;;;;;;;;;;10.30;53.50;;;;;;5079931;28;19939;-69
2022/01/27 11:42:56;;;;;;;;;;;10.30;53.50;;;;;;5079921;28;19913;-69
2022/01/27 11:45:28;;;;;;;;;;;10.30;53.40;;;;;;5079931;28;19944;-69
2022/01/27 11:48:02;;;;;;;;;;;10.30;53.40;;;;;;5079831;28;19913;-69
2022/01/27 11:50:36;;;;;;;;;;;10.40;53.40;;;;;;5079817;28;19913;-70
2022/01/27 11:53:03;;;;;;;;;;;10.40;53.30;;;;;;5083353;28;19916;-70
2022/01/27 11:55:31;;;;;;;;;;;10.40;53.30;;;;;;5083962;28;19913;-70
2022/01/27 11:57:58;;;;;;;;;;;10.40;53.30;;;;;;5083863;28;19904;-70
2022/01/27 12:00:26;;;;;;;;;;;10.40;53.30;;;;;;5083836;28;19912;-70
2022/01/27 12:03:01;;;;;;;;;;;10.40;53.30;;;;;;5083759;28;19912;-70
2022/01/27 12:05:33;;;;;;;;;;;10.50;53.30;;;;;;5083772;28;20175;-70
2022/01/27 12:08:20;;;;;;;;;;;10.40;53.20;;;;;;5083726;28;19912;-69
2022/01/27 12:10:59;;;;;;;;;;;10.50;53.30;;;;;;5083716;28;19912;-70
2022/01/27 12:13:38;;;;;;;;;;;10.50;53.30;;;;;;5082220;28;19912;-70
2022/01/27 12:19:04;;;;;;;;;;;10.40;53.40;;;;;;5083420;28;19971;-70
2022/01/27 12:21:29;;;;;;;;;;;10.40;53.40;;;;;;5082140;28;19983;-70
2022/01/27 12:24:11;;;;;;;;;;;10.50;53.50;;;;;;5082079;28;19925;-70
2022/01/27 12:26:49;;;;;;;;;;;10.50;54.00;;;;;;5082044;28;19919;-70
2022/01/27 12:29:33;;;;;;;;;;;10.50;53.40;;;;;;5083163;28;19912;-70
2022/01/27 12:32:00;;;;;;;;;;;10.50;53.30;;;;;;5083250;28;19964;-71
2022/01/27 12:34:26;;;;;;;;;;;10.50;53.40;;;;;;5083051;28;20117;-71
2022/01/27 12:36:53;;;;;;;;;;;10.50;53.40;;;;;;5083120;28;19979;-70
2022/01/27 12:39:20;;;;;;;;;;;10.50;53.40;;;;;;5083117;28;20227;-70
2022/01/27 12:41:48;;;;;;;;;;;10.50;53.30;;;;;;5081791;28;19912;-71
2022/01/27 12:44:13;;;;;;;;;;;10.50;53.30;;;;;;5083152;28;19916;-70
2022/01/27 12:46:39;;;;;;;;;;;10.50;53.30;;;;;;5082959;28;19918;-70
2022/01/27 12:49:05;;;;;;;;;;;10.50;53.50;;;;;;5082884;28;20096;-70
2022/01/27 12:51:46;;;;;;;;;;;10.50;53.50;;;;;;5081559;28;20212;-70
2022/01/27 12:54:14;;;;;;;;;;;10.50;53.60;;;;;;5082758;28;19916;-71
2022/01/27 12:56:39;;;;;;;;;;;10.50;53.60;;;;;;5082788;28;19926;-69
2022/01/27 12:59:14;;;;;;;;;;;10.50;53.70;;;;;;5082625;28;20030;-70
2022/01/27 13:01:40;;;;;;;;;;;10.50;53.60;;;;;;5082722;28;19936;-70
2022/01/27 13:04:06;;;;;;;;;;;10.50;53.60;;;;;;5082833;28;20262;-70
2022/01/27 13:06:31;;;;;;;;;;;10.50;53.70;;;;;;5082516;28;20270;-68
2022/01/27 13:09:12;;;;;;;;;;;10.50;53.80;;;;;;5082446;28;19920;-70
2022/01/27 13:11:40;;;;;;;;;;;10.40;53.80;;;;;;5082376;28;19912;-69
2022/01/27 13:14:06;;;;;;;;;;;10.50;53.90;;;;;;5082152;28;20120;-69
2022/01/27 13:16:43;;;;;;;;;;;10.50;53.80;;;;;;5080863;28;19916;-71
2022/01/27 13:19:28;;;;;;;;;;;10.50;53.70;;;;;;5082282;28;19919;-70
2022/01/27 13:22:07;;;;;;;;;;;10.60;53.60;;;;;;5082265;28;20381;-70
2022/01/27 13:24:34;;;;;;;;;;;10.60;53.60;;;;;;5082122;28;19920;-70
2022/01/27 13:27:04;;;;;;;;;;;10.50;53.60;;;;;;5082077;28;19913;-70
2022/01/27 13:29:37;;;;;;;;;;;10.50;53.60;;;;;;5082130;28;20120;-70
2022/01/27 13:32:04;;;;;;;;;;;10.50;53.70;;;;;;5082057;28;20326;-69
2022/01/27 13:34:30;;;;;;;;;;;10.50;53.70;;;;;;5081915;28;19928;-70
2022/01/27 13:37:01;;;;;;;;;;;10.60;53.60;;;;;;5081548;28;19921;-70
2022/01/27 13:41:53;;;;;;;;;;;10.60;53.60;;;;;;5082073;28;19941;-71
2022/01/27 13:44:19;;;;;;;;;;;10.60;53.60;;;;;;5081754;28;19962;-70
2022/01/27 13:46:53;;;;;;;;;;;10.60;53.50;;;;;;5081679;28;19913;-70
2022/01/27 13:49:23;;;;;;;;;;;10.60;53.50;;;;;;5081720;28;19913;-70
2022/01/27 13:51:50;;;;;;;;;;;10.70;53.50;;;;;;5080333;28;19986;-70
2022/01/27 13:54:16;;;;;;;;;;;10.70;53.50;;;;;;5081566;28;19917;-70
2022/01/27 13:56:42;;;;;;;;;;;10.70;53.70;;;;;;5081447;28;19919;-70
2022/01/27 13:59:11;;;;;;;;;;;10.60;53.60;;;;;;5081545;28;19905;-70
2022/01/27 14:01:37;;;;;;;;;;;10.60;53.60;;;;;;5081435;28;19952;-70
2022/01/27 14:04:03;;;;;;;;;;;10.60;53.70;;;;;;5081377;28;19912;-71
2022/01/27 14:06:29;;;;;;;;;;;10.60;53.60;;;;;;5081326;28;19919;-70
2022/01/27 14:08:58;;;;;;;;;;;10.70;53.70;;;;;;5081304;28;19912;-70
2022/01/27 14:11:36;;;;;;;;;;;10.70;53.60;;;;;;5081230;28;19912;-70
2022/01/27 14:14:04;;;;;;;;;;;10.70;53.50;;;;;;5080380;28;19954;-70
2022/01/27 14:16:31;;;;;;;;;;;10.70;53.50;;;;;;5080953;28;19928;-70
2022/01/27 14:19:08;;;;;;;;;;;10.70;53.50;;;;;;5080997;28;19942;-70
2022/01/27 14:21:40;;;;;;;;;;;10.80;53.50;;;;;;5080984;28;19951;-70
2022/01/27 14:24:11;;;;;;;;;;;10.80;53.50;;;;;;5080900;28;19984;-70
2022/01/27 14:26:41;;;;;;;;;;;10.80;53.50;;;;;;5080964;28;20209;-70
2022/01/27 14:29:14;;;;;;;;;;;10.70;53.60;;;;;;5080785;28;19979;-69
2022/01/27 14:31:42;;;;;;;;;;;10.70;53.80;;;;;;5080843;28;19954;-71
2022/01/27 14:34:08;;;;;;;;;;;10.60;53.90;;;;;;5080690;28;19977;-70
2022/01/27 14:36:36;;;;;;;;;;;10.60;54.20;;;;;;5079345;28;20216;-70
2022/01/27 14:39:03;;;;;;;;;;;10.60;54.00;;;;;;5080653;28;19913;-70
2022/01/27 14:41:28;;;;;;;;;;;10.60;54.10;;;;;;5080563;28;19979;-70
2022/01/27 14:43:54;;;;;;;;;;;10.50;54.10;;;;;;5080526;28;19912;-70
2022/01/27 14:46:29;;;;;;;;;;;10.50;54.10;;;;;;5080486;28;19913;-70
2022/01/27 14:48:58;;;;;;;;;;;10.50;54.10;;;;;;5080402;28;20116;-70
2022/01/27 14:51:26;;;;;;;;;;;10.60;54.20;;;;;;5080390;28;19916;-70
2022/01/27 14:53:52;;;;;;;;;;;10.60;54.10;;;;;;5080204;28;19966;-70
2022/01/27 14:56:20;;;;;;;;;;;10.60;54.10;;;;;;5080238;28;20109;-71
2022/01/27 14:58:45;;;;;;;;;;;10.60;54.10;;;;;;5080232;28;19912;-70
2022/01/27 15:01:11;;;;;;;;;;;10.50;54.20;;;;;;5078901;28;20336;-69
2022/01/27 15:03:37;;;;;;;;;;;10.50;54.30;;;;;;5080175;28;19912;-69
2022/01/27 15:06:02;;;;;;;;;;;10.50;54.30;;;;;;5080132;28;19916;-70
2022/01/27 15:08:28;;;;;;;;;;;10.50;54.30;;;;;;5080225;28;20220;-70
2022/01/27 15:10:54;;;;;;;;;;;10.50;54.30;;;;;;5080073;28;20375;-70
2022/01/27 15:13:22;;;;;;;;;;;10.50;54.50;;;;;;5079979;28;19995;-71
2022/01/27 15:18:50;;;;;;;;;;;10.50;54.50;;;;;;5079992;28;19919;-70
2022/01/27 15:21:16;;;;;;;;;;;10.50;54.50;;;;;;5079961;28;19912;-69
2022/01/27 15:23:42;;;;;;;;;;;10.40;54.40;;;;;;5079912;28;19905;-69
2022/01/27 15:26:08;;;;;;;;;;;10.40;54.40;;;;;;5079848;28;20036;-69
2022/01/27 15:28:34;;;;;;;;;;;10.50;54.50;;;;;;5079917;28;20396;-69